Time;durP1;ratioP1;P1;durP2;ratioP2;P2;SDS_P1;SDS_P2;PMS_P1;PMS_P2;Temp;Humidity;BMP_temperature;BMP_pressure;BME280_temperature;BME280_humidity;BME280_pressure;Samples;Min_cycle;Max_cycle;Signal;HPM_P1;HPM_P2
2022/10/31 05:03:07;;;;;;;9.43;8.52;;;;;;;;;;5015545;28;20505;-81
2022/10/31 05:05:36;;;;;;;9.43;8.43;;;;;;;;;;5012272;28;20743;-81
2022/10/31 05:08:02;;;;;;;10.20;9.20;;;;;;;;;;5014796;28;20412;-81
2022/10/31 05:10:29;;;;;;;10.18;9.18;;;;;;;;;;5025700;28;20397;-81
2022/10/31 05:12:56;;;;;;;9.83;8.83;;;;;;;;;;5033461;28;20453;-81
2022/10/31 05:15:32;;;;;;;9.93;9.02;;;;;;;;;;5033290;28;20394;-81
2022/10/31 05:17:58;;;;;;;12.02;9.15;;;;;;;;;;5036132;28;20462;-81
2022/10/31 05:20:28;;;;;;;9.30;8.30;;;;;;;;;;5048218;28;20537;-81
2022/10/31 05:22:55;;;;;;;9.65;8.48;;;;;;;;;;5035110;28;20378;-81
2022/10/31 05:25:26;;;;;;;10.18;9.18;;;;;;;;;;5040820;28;20395;-81
2022/10/31 05:27:59;;;;;;;10.35;9.25;;;;;;;;;;5042730;28;20896;-81
2022/10/31 05:30:27;;;;;;;10.48;9.40;;;;;;;;;;5033239;28;20390;-81
2022/10/31 05:32:53;;;;;;;11.50;8.80;;;;;;;;;;5032806;28;20710;-81
2022/10/31 05:35:20;;;;;;;9.60;8.70;;;;;;;;;;5032980;28;20437;-81
2022/10/31 05:37:47;;;;;;;9.57;8.68;;;;;;;;;;5031547;28;20864;-83
2022/10/31 05:40:16;;;;;;;9.07;8.27;;;;;;;;;;5033199;28;20390;-82
2022/10/31 05:42:43;;;;;;;10.00;9.00;;;;;;;;;;5032649;28;20383;-81
2022/10/31 05:45:32;;;;;;;10.65;9.65;;;;;;;;;;5032908;28;20445;-83
2022/10/31 05:48:01;;;;;;;11.63;10.52;;;;;;;;;;5029948;28;20837;-82
2022/10/31 05:50:29;;;;;;;11.20;10.20;;;;;;;;;;5031196;28;20401;-80
2022/10/31 05:53:02;;;;;;;11.85;10.65;;;;;;;;;;5034084;28;20391;-80
2022/10/31 05:55:28;;;;;;;12.70;11.40;;;;;;;;;;5042223;28;20457;-80
2022/10/31 05:57:55;;;;;;;12.73;11.63;;;;;;;;;;5032849;28;20386;-81
2022/10/31 06:00:22;;;;;;;12.70;11.50;;;;;;;;;;5034518;28;20374;-81
2022/10/31 06:02:48;;;;;;;12.82;11.70;;;;;;;;;;5032483;28;20900;-82
2022/10/31 06:05:14;;;;;;;13.23;12.03;;;;;;;;;;5035140;28;20439;-82
2022/10/31 06:07:41;;;;;;;12.45;11.38;;;;;;;;;;5033201;28;20410;-82
2022/10/31 06:10:07;;;;;;;12.60;11.60;;;;;;;;;;5032520;28;20484;-82
2022/10/31 06:12:37;;;;;;;13.50;12.30;;;;;;;;;;5032340;28;20860;-82
2022/10/31 06:15:04;;;;;;;12.45;11.45;;;;;;;;;;5027119;28;20888;-82
2022/10/31 06:17:30;;;;;;;12.30;11.20;;;;;;;;;;5032198;28;20474;-82
2022/10/31 06:19:56;;;;;;;13.07;11.90;;;;;;;;;;5037137;28;20389;-83
2022/10/31 06:22:22;;;;;;;13.30;12.13;;;;;;;;;;5039932;28;20409;-82
2022/10/31 06:24:48;;;;;;;13.50;12.27;;;;;;;;;;5032383;28;20852;-84
2022/10/31 06:27:14;;;;;;;13.07;11.83;;;;;;;;;;5032460;28;20446;-84
2022/10/31 06:29:40;;;;;;;12.73;11.63;;;;;;;;;;5032290;28;20379;-83
2022/10/31 06:32:06;;;;;;;12.18;11.15;;;;;;;;;;5035553;28;20374;-83
2022/10/31 06:34:32;;;;;;;12.68;11.57;;;;;;;;;;5031253;28;20415;-84
2022/10/31 06:36:58;;;;;;;12.68;11.63;;;;;;;;;;5030881;28;20383;-84
2022/10/31 06:39:24;;;;;;;12.93;11.73;;;;;;;;;;5032031;28;20391;-84
2022/10/31 06:41:50;;;;;;;12.60;11.50;;;;;;;;;;5034537;28;20421;-84
2022/10/31 06:44:16;;;;;;;11.50;10.60;;;;;;;;;;5032094;28;20379;-84
2022/10/31 06:46:42;;;;;;;11.68;10.68;;;;;;;;;;5032098;28;20403;-84
2022/10/31 06:49:08;;;;;;;11.38;10.40;;;;;;;;;;5031834;28;20416;-83
2022/10/31 06:51:34;;;;;;;12.00;11.07;;;;;;;;;;5031941;28;20383;-83
2022/10/31 06:54:00;;;;;;;12.05;11.05;;;;;;;;;;5031735;28;20514;-84
2022/10/31 06:56:26;;;;;;;12.07;11.07;;;;;;;;;;5034360;28;20383;-84
2022/10/31 06:58:52;;;;;;;10.90;10.00;;;;;;;;;;5031743;28;20860;-83
2022/10/31 07:01:18;;;;;;;11.63;10.63;;;;;;;;;;5030569;28;20414;-84
2022/10/31 07:03:44;;;;;;;11.55;10.55;;;;;;;;;;5031048;28;20775;-84
2022/10/31 07:06:10;;;;;;;12.32;11.23;;;;;;;;;;5031133;28;20418;-85
2022/10/31 07:08:36;;;;;;;11.38;10.48;;;;;;;;;;5027134;28;20407;-83
2022/10/31 07:11:02;;;;;;;11.13;10.23;;;;;;;;;;5030233;28;20387;-83
2022/10/31 07:13:28;;;;;;;12.77;11.55;;;;;;;;;;5031592;28;20423;-83
2022/10/31 07:15:55;;;;;;;12.27;11.30;;;;;;;;;;5034177;28;20915;-82
2022/10/31 07:18:21;;;;;;;12.27;11.13;;;;;;;;;;5031452;28;20415;-82
2022/10/31 07:20:48;;;;;;;12.13;11.00;;;;;;;;;;5028889;28;20984;-82
2022/10/31 07:23:14;;;;;;;12.50;11.40;;;;;;;;;;5030587;28;20403;-83
2022/10/31 07:25:40;;;;;;;12.02;10.95;;;;;;;;;;5023244;28;20395;-82
2022/10/31 07:28:09;;;;;;;14.80;13.30;;;;;;;;;;5032644;28;20398;-82
2022/10/31 07:30:36;;;;;;;16.05;14.40;;;;;;;;;;5035026;28;20418;-83
2022/10/31 07:33:02;;;;;;;15.15;13.50;;;;;;;;;;5035393;28;20387;-82
2022/10/31 07:35:51;;;;;;;16.52;14.80;;;;;;;;;;5034766;28;20391;-83
2022/10/31 07:38:17;;;;;;;16.83;15.23;;;;;;;;;;5033803;28;20371;-82
2022/10/31 07:40:43;;;;;;;18.75;16.55;;;;;;;;;;5033771;28;20411;-83
2022/10/31 07:43:15;;;;;;;27.43;20.20;;;;;;;;;;5035235;28;20430;-82
2022/10/31 07:45:41;;;;;;;19.95;16.88;;;;;;;;;;5035034;28;20773;-83
2022/10/31 07:48:10;;;;;;;17.58;15.68;;;;;;;;;;5034699;28;20885;-82
2022/10/31 07:50:36;;;;;;;16.10;14.40;;;;;;;;;;5034878;28;20383;-82
2022/10/31 07:53:03;;;;;;;15.55;13.85;;;;;;;;;;5035009;28;20371;-82
2022/10/31 07:55:30;;;;;;;17.85;14.50;;;;;;;;;;5034959;28;20868;-83
2022/10/31 07:58:06;;;;;;;14.73;13.43;;;;;;;;;;5034896;28;20394;-82
2022/10/31 08:00:33;;;;;;;12.90;11.90;;;;;;;;;;5034914;28;20418;-83
2022/10/31 08:03:03;;;;;;;12.50;11.50;;;;;;;;;;5034611;28;20433;-82
2022/10/31 08:05:30;;;;;;;12.85;11.85;;;;;;;;;;5034306;28;20417;-82
2022/10/31 08:07:57;;;;;;;12.45;11.55;;;;;;;;;;5034375;28;20433;-82
2022/10/31 08:10:23;;;;;;;15.90;13.97;;;;;;;;;;5043166;28;20422;-83
2022/10/31 08:12:56;;;;;;;18.85;16.73;;;;;;;;;;5034528;28;20384;-82
2022/10/31 08:15:22;;;;;;;21.20;18.88;;;;;;;;;;5034469;28;20387;-82
2022/10/31 08:17:49;;;;;;;22.13;19.38;;;;;;;;;;5034802;28;20793;-82
2022/10/31 08:20:15;;;;;;;22.77;19.93;;;;;;;;;;5034658;28;20441;-82
2022/10/31 08:22:41;;;;;;;22.13;19.85;;;;;;;;;;5034448;28;20458;-82
2022/10/31 08:25:07;;;;;;;19.85;18.05;;;;;;;;;;5016583;28;20491;-84
2022/10/31 08:27:33;;;;;;;17.05;15.60;;;;;;;;;;5034225;28;20750;-82
2022/10/31 08:29:59;;;;;;;16.70;15.30;;;;;;;;;;5034396;28;20375;-82
2022/10/31 08:32:25;;;;;;;15.50;14.10;;;;;;;;;;5020434;28;20375;-82
2022/10/31 08:34:51;;;;;;;14.00;12.90;;;;;;;;;;5034233;28;20424;-82
2022/10/31 08:37:19;;;;;;;14.38;13.27;;;;;;;;;;5034148;28;20383;-82
2022/10/31 08:39:46;;;;;;;14.27;13.10;;;;;;;;;;5033582;28;20387;-82
2022/10/31 08:42:12;;;;;;;14.02;13.00;;;;;;;;;;5034107;28;20382;-82
2022/10/31 08:44:38;;;;;;;14.35;13.20;;;;;;;;;;5033117;28;20805;-81
2022/10/31 08:47:04;;;;;;;14.10;13.10;;;;;;;;;;5031415;28;20409;-82
2022/10/31 08:49:30;;;;;;;12.88;11.93;;;;;;;;;;5034010;28;20411;-82
2022/10/31 08:51:56;;;;;;;12.67;11.67;;;;;;;;;;5033711;28;20485;-82
2022/10/31 08:54:22;;;;;;;14.63;13.38;;;;;;;;;;5039317;28;20807;-82
2022/10/31 08:56:48;;;;;;;13.15;12.15;;;;;;;;;;5042620;28;20880;-81
2022/10/31 08:59:20;;;;;;;13.20;12.20;;;;;;;;;;5032929;28;20503;-83
2022/10/31 09:01:46;;;;;;;14.80;13.70;;;;;;;;;;5033751;28;20391;-82
2022/10/31 09:04:25;;;;;;;14.15;13.05;;;;;;;;;;5033683;28;20387;-82
2022/10/31 09:07:03;;;;;;;14.45;13.35;;;;;;;;;;5036042;28;20401;-82
2022/10/31 09:09:29;;;;;;;13.75;12.75;;;;;;;;;;5044970;28;20383;-82
2022/10/31 09:11:58;;;;;;;13.83;12.73;;;;;;;;;;5037116;28;20462;-82
2022/10/31 09:14:27;;;;;;;14.80;13.63;;;;;;;;;;5014927;28;20730;-82
2022/10/31 09:16:53;;;;;;;15.18;14.07;;;;;;;;;;5035809;28;20783;-82
2022/10/31 09:19:18;;;;;;;18.08;16.60;;;;;;;;;;5033418;28;20394;-82
2022/10/31 09:21:44;;;;;;;17.07;15.73;;;;;;;;;;5035731;28;20379;-82
2022/10/31 09:24:10;;;;;;;17.85;16.25;;;;;;;;;;5033290;28;20414;-82
2022/10/31 09:26:36;;;;;;;17.65;16.05;;;;;;;;;;5033099;28;20403;-82
2022/10/31 09:29:03;;;;;;;17.13;15.73;;;;;;;;;;5033998;28;20387;-83
2022/10/31 09:31:34;;;;;;;19.30;17.70;;;;;;;;;;5039155;28;20768;-82
2022/10/31 09:34:06;;;;;;;20.35;18.35;;;;;;;;;;5015340;28;20384;-83
2022/10/31 09:36:37;;;;;;;21.02;19.08;;;;;;;;;;5033261;28;20899;-82
2022/10/31 09:39:03;;;;;;;18.38;16.77;;;;;;;;;;5033156;28;20394;-82
2022/10/31 09:41:55;;;;;;;34.67;27.05;;;;;;;;;;5032818;28;20764;-83
2022/10/31 09:44:27;;;;;;;39.08;28.73;;;;;;;;;;5032772;28;20379;-82
2022/10/31 09:46:54;;;;;;;33.47;27.08;;;;;;;;;;5037803;28;20905;-83
2022/10/31 09:49:55;;;;;;;25.23;22.48;;;;;;;;;;5033572;28;20423;-83
2022/10/31 09:52:23;;;;;;;26.88;21.42;;;;;;;;;;4971690;28;20400;-83
2022/10/31 09:54:53;;;;;;;28.90;24.10;;;;;;;;;;5020881;28;20391;-82
2022/10/31 09:57:25;;;;;;;26.95;23.48;;;;;;;;;;5032327;28;20529;-83
2022/10/31 09:59:55;;;;;;;29.73;24.65;;;;;;;;;;5034111;28;20386;-82
2022/10/31 10:02:24;;;;;;;23.92;21.40;;;;;;;;;;5050779;28;20866;-82
2022/10/31 10:04:56;;;;;;;26.70;23.90;;;;;;;;;;5048333;28;20389;-82
2022/10/31 10:08:04;;;;;;;25.05;22.45;;;;;;;;;;5038332;28;20425;-83
2022/10/31 10:10:38;;;;;;;27.02;23.67;;;;;;;;;;5044347;28;21007;-83
2022/10/31 10:13:07;;;;;;;23.63;21.23;;;;;;;;;;5046111;28;20375;-83
2022/10/31 10:15:55;;;;;;;21.98;19.83;;;;;;;;;;5048398;28;20373;-82
2022/10/31 10:18:33;;;;;;;20.73;18.83;;;;;;;;;;5048002;28;20381;-82
2022/10/31 10:21:04;;;;;;;24.42;21.50;;;;;;;;;;5044447;28;20377;-82
2022/10/31 10:23:45;;;;;;;29.25;24.55;;;;;;;;;;5040214;28;20365;-82
2022/10/31 10:26:14;;;;;;;31.13;25.55;;;;;;;;;;5048800;28;20382;-83
2022/10/31 10:28:44;;;;;;;31.87;26.13;;;;;;;;;;5047672;28;20517;-82
2022/10/31 10:31:34;;;;;;;29.90;25.73;;;;;;;;;;5049562;28;20400;-83
2022/10/31 10:34:09;;;;;;;26.23;22.83;;;;;;;;;;5049220;28;20420;-83
2022/10/31 10:37:09;;;;;;;27.23;24.17;;;;;;;;;;5043311;28;20405;-83
2022/10/31 10:39:38;;;;;;;31.92;26.20;;;;;;;;;;5048672;28;20385;-82
2022/10/31 10:47:50;;;;;;;45.67;32.42;;;;;;;;;;5048017;28;20940;-82
2022/10/31 10:50:19;;;;;;;44.95;32.63;;;;;;;;;;5043478;28;20385;-83
2022/10/31 10:52:48;;;;;;;57.47;36.85;;;;;;;;;;5049486;28;20381;-82
2022/10/31 10:55:32;;;;;;;51.75;35.67;;;;;;;;;;5043927;28;20404;-82
2022/10/31 10:58:03;;;;;;;53.80;35.22;;;;;;;;;;5046268;28;20376;-82
2022/10/31 11:00:50;;;;;;;47.08;33.70;;;;;;;;;;5049029;28;20401;-82
2022/10/31 11:03:20;;;;;;;46.50;32.35;;;;;;;;;;5027066;28;20775;-83
2022/10/31 11:05:53;;;;;;;46.65;33.17;;;;;;;;;;5037106;28;20395;-81
2022/10/31 11:08:25;;;;;;;47.67;34.37;;;;;;;;;;5037443;28;20930;-81
2022/10/31 11:11:17;;;;;;;38.33;29.33;;;;;;;;;;5041817;28;20414;-81
2022/10/31 11:13:45;;;;;;;40.67;30.88;;;;;;;;;;5032654;28;20390;-83
2022/10/31 11:16:21;;;;;;;35.53;27.55;;;;;;;;;;5040039;28;20375;-83
2022/10/31 11:18:50;;;;;;;36.53;28.60;;;;;;;;;;5025709;28;20462;-82
2022/10/31 11:21:29;;;;;;;37.60;28.63;;;;;;;;;;5035367;28;20382;-82
2022/10/31 11:24:10;;;;;;;38.08;29.70;;;;;;;;;;5037410;28;20454;-84
2022/10/31 11:26:46;;;;;;;46.08;33.70;;;;;;;;;;5035818;28;20411;-83
2022/10/31 11:29:17;;;;;;;39.15;30.05;;;;;;;;;;5055318;23;20399;-87
2022/10/31 11:31:43;;;;;;;27.65;24.10;;;;;;;;;;5034361;28;20471;-87
2022/10/31 11:34:36;;;;;;;23.38;20.80;;;;;;;;;;5026199;28;20393;-86
2022/10/31 11:37:16;;;;;;;29.02;24.73;;;;;;;;;;5026140;28;20853;-85
2022/10/31 11:39:44;;;;;;;28.08;24.92;;;;;;;;;;5031111;28;20462;-86
2022/10/31 11:42:13;;;;;;;30.05;25.60;;;;;;;;;;5024977;28;20884;-86
2022/10/31 11:44:42;;;;;;;29.92;25.30;;;;;;;;;;5031249;28;20406;-87
2022/10/31 11:47:23;;;;;;;30.70;25.00;;;;;;;;;;5040031;28;20409;-86
2022/10/31 11:49:52;;;;;;;32.22;23.95;;;;;;;;;;5030974;28;20895;-87
2022/10/31 11:52:29;;;;;;;29.33;24.77;;;;;;;;;;5038754;28;20560;-88
2022/10/31 11:54:58;;;;;;;28.20;25.15;;;;;;;;;;5042750;28;20392;-87
2022/10/31 11:57:37;;;;;;;27.35;23.80;;;;;;;;;;5024415;28;20386;-87
2022/10/31 12:00:04;;;;;;;24.42;21.90;;;;;;;;;;5034072;28;20524;-88
2022/10/31 12:02:36;;;;;;;31.08;25.70;;;;;;;;;;5003477;28;20899;-88
2022/10/31 12:05:28;;;;;;;27.95;24.80;;;;;;;;;;5034319;28;20433;-87
2022/10/31 12:07:57;;;;;;;29.00;25.85;;;;;;;;;;5027559;28;20410;-87
2022/10/31 12:10:35;;;;;;;27.50;24.60;;;;;;;;;;5035394;28;20393;-86
2022/10/31 12:13:06;;;;;;;32.63;26.30;;;;;;;;;;5039266;28;20508;-88
2022/10/31 12:15:33;;;;;;;34.58;27.65;;;;;;;;;;5045482;28;20754;-88
2022/10/31 12:18:25;;;;;;;21.17;19.07;;;;;;;;;;5035512;28;20400;-87
2022/10/31 12:21:12;;;;;;;21.52;19.42;;;;;;;;;;5041044;28;20401;-86
2022/10/31 12:24:02;;;;;;;20.45;18.45;;;;;;;;;;5052234;28;20738;-85
2022/10/31 12:26:50;;;;;;;20.52;18.13;;;;;;;;;;5036958;28;20407;-86
2022/10/31 12:29:36;;;;;;;20.35;18.40;;;;;;;;;;5045088;28;20448;-86
2022/10/31 12:32:08;;;;;;;19.58;17.65;;;;;;;;;;5031081;28;20404;-86
2022/10/31 12:34:54;;;;;;;21.30;19.20;;;;;;;;;;5046068;28;20380;-86
2022/10/31 12:37:32;;;;;;;22.20;19.80;;;;;;;;;;5030873;28;20563;-85
2022/10/31 12:40:07;;;;;;;18.73;16.92;;;;;;;;;;5032676;28;20391;-86
2022/10/31 12:42:46;;;;;;;19.48;17.38;;;;;;;;;;5031696;28;20399;-88
2022/10/31 12:45:30;;;;;;;19.98;18.08;;;;;;;;;;5031407;28;20390;-87
2022/10/31 12:48:04;;;;;;;20.92;18.73;;;;;;;;;;5050194;28;21940;-87
2022/10/31 12:50:48;;;;;;;20.48;18.38;;;;;;;;;;5053838;28;20467;-87
2022/10/31 12:53:29;;;;;;;20.90;17.88;;;;;;;;;;5038309;28;20478;-87
2022/10/31 12:56:01;;;;;;;18.60;16.88;;;;;;;;;;5027917;28;20401;-88
2022/10/31 12:58:30;;;;;;;18.48;16.70;;;;;;;;;;5049584;28;20459;-87
2022/10/31 13:01:07;;;;;;;19.90;17.80;;;;;;;;;;5049767;28;20402;-87
2022/10/31 13:03:45;;;;;;;19.75;17.67;;;;;;;;;;5046151;28;20720;-85
2022/10/31 13:06:14;;;;;;;20.95;18.65;;;;;;;;;;5053666;28;20409;-85
2022/10/31 13:08:46;;;;;;;20.42;17.88;;;;;;;;;;5053818;28;20512;-86
2022/10/31 13:11:33;;;;;;;21.88;19.58;;;;;;;;;;5053648;28;20377;-85
2022/10/31 13:14:03;;;;;;;24.25;20.55;;;;;;;;;;5049353;28;20374;-85
2022/10/31 13:16:37;;;;;;;23.40;20.15;;;;;;;;;;5053161;28;20743;-85
2022/10/31 13:19:09;;;;;;;23.95;20.00;;;;;;;;;;5035485;28;20392;-85
2022/10/31 13:21:59;;;;;;;25.15;20.77;;;;;;;;;;5039100;28;20391;-85
2022/10/31 13:24:31;;;;;;;23.80;19.52;;;;;;;;;;5003498;28;20386;-85
2022/10/31 13:27:02;;;;;;;25.08;21.30;;;;;;;;;;5053087;28;20840;-85
2022/10/31 13:29:30;;;;;;;26.98;21.33;;;;;;;;;;5052983;28;20381;-85
2022/10/31 13:31:56;;;;;;;25.55;22.52;;;;;;;;;;5042443;28;20379;-85
2022/10/31 13:34:31;;;;;;;31.77;22.45;;;;;;;;;;5036513;28;20772;-85
2022/10/31 13:37:15;;;;;;;30.77;22.83;;;;;;;;;;5046512;28;20382;-85
2022/10/31 13:39:41;;;;;;;28.23;22.30;;;;;;;;;;5053185;28;20796;-85
2022/10/31 13:42:29;;;;;;;26.67;21.15;;;;;;;;;;5052934;28;20468;-85
2022/10/31 13:44:55;;;;;;;24.80;20.98;;;;;;;;;;5052528;28;20386;-85
2022/10/31 13:47:26;;;;;;;28.83;21.52;;;;;;;;;;5052586;28;20405;-85
2022/10/31 13:49:52;;;;;;;27.67;22.67;;;;;;;;;;5047629;28;20379;-85
2022/10/31 13:52:25;;;;;;;29.98;22.70;;;;;;;;;;5046637;28;20381;-85
2022/10/31 13:54:55;;;;;;;28.33;21.38;;;;;;;;;;5052955;28;20452;-85
2022/10/31 13:57:43;;;;;;;30.35;21.95;;;;;;;;;;5052745;28;20382;-85
2022/10/31 14:00:21;;;;;;;26.65;22.00;;;;;;;;;;5052499;28;20726;-85
2022/10/31 14:02:49;;;;;;;31.35;23.52;;;;;;;;;;5051073;28;20381;-86
2022/10/31 14:05:26;;;;;;;33.75;24.48;;;;;;;;;;5052458;28;20469;-85
2022/10/31 14:07:55;;;;;;;33.53;24.15;;;;;;;;;;5052325;28;20409;-84
2022/10/31 14:10:36;;;;;;;21.63;18.13;;;;;;;;;;5034521;28;20492;-85
2022/10/31 14:13:05;;;;;;;25.80;19.27;;;;;;;;;;5052513;28;20809;-86
2022/10/31 14:15:31;;;;;;;22.97;19.10;;;;;;;;;;5047200;28;20375;-86
2022/10/31 14:18:07;;;;;;;25.63;19.50;;;;;;;;;;5046474;28;20389;-86
2022/10/31 14:20:38;;;;;;;25.77;19.17;;;;;;;;;;5052511;28;20381;-86
2022/10/31 14:23:13;;;;;;;25.95;20.23;;;;;;;;;;5051848;28;20381;-86
2022/10/31 14:25:39;;;;;;;26.47;21.03;;;;;;;;;;5034424;28;20478;-86
2022/10/31 14:28:22;;;;;;;26.40;20.95;;;;;;;;;;5052152;28;20420;-86
2022/10/31 14:30:55;;;;;;;26.92;20.50;;;;;;;;;;5050604;28;20412;-86
2022/10/31 14:33:22;;;;;;;21.90;18.17;;;;;;;;;;5047048;28;20870;-86
2022/10/31 14:35:57;;;;;;;22.95;18.45;;;;;;;;;;5052379;28;20378;-86
2022/10/31 14:38:29;;;;;;;28.75;19.67;;;;;;;;;;5051736;28;20382;-86
2022/10/31 14:41:14;;;;;;;23.77;19.75;;;;;;;;;;5051963;28;20389;-86
2022/10/31 14:43:46;;;;;;;21.93;19.47;;;;;;;;;;5040680;28;20518;-86
2022/10/31 14:46:22;;;;;;;23.95;19.80;;;;;;;;;;5040463;28;20381;-87
2022/10/31 14:48:51;;;;;;;25.67;19.90;;;;;;;;;;5052178;28;20377;-86
2022/10/31 14:51:24;;;;;;;24.05;19.77;;;;;;;;;;5043467;28;20380;-86
2022/10/31 14:53:51;;;;;;;20.13;18.05;;;;;;;;;;5051873;28;20382;-86
2022/10/31 14:56:21;;;;;;;23.45;19.83;;;;;;;;;;5051969;28;20781;-86
2022/10/31 14:58:47;;;;;;;24.65;19.63;;;;;;;;;;5051754;28;20381;-85
2022/10/31 15:01:33;;;;;;;25.42;20.80;;;;;;;;;;5024667;28;20387;-85
2022/10/31 15:04:06;;;;;;;21.48;19.38;;;;;;;;;;5033267;28;20383;-86
2022/10/31 15:06:41;;;;;;;21.83;19.42;;;;;;;;;;5032111;28;20493;-88
2022/10/31 15:09:21;;;;;;;23.10;20.30;;;;;;;;;;5044807;28;22084;-87
2022/10/31 15:11:56;;;;;;;24.65;21.65;;;;;;;;;;5051723;28;20439;-87
2022/10/31 15:14:26;;;;;;;27.05;22.17;;;;;;;;;;5050550;28;20399;-90
2022/10/31 15:16:52;;;;;;;21.75;19.45;;;;;;;;;;5025197;28;20403;-89
2022/10/31 15:19:25;;;;;;;24.50;20.38;;;;;;;;;;5043038;28;20431;-89
2022/10/31 15:21:51;;;;;;;27.15;20.42;;;;;;;;;;5043741;28;20465;-91
2022/10/31 15:24:21;;;;;;;22.47;19.97;;;;;;;;;;5046852;28;20468;-89
2022/10/31 15:26:51;;;;;;;25.23;22.50;;;;;;;;;;5038904;28;20439;-89
2022/10/31 15:29:18;;;;;;;25.90;22.02;;;;;;;;;;5027035;28;20383;-87
2022/10/31 15:32:06;;;;;;;24.17;21.58;;;;;;;;;;5034880;28;20375;-89
2022/10/31 15:34:47;;;;;;;24.83;22.25;;;;;;;;;;5025751;28;20388;-89
2022/10/31 15:37:20;;;;;;;25.20;22.65;;;;;;;;;;5042074;28;20385;-88
2022/10/31 15:39:50;;;;;;;23.88;21.48;;;;;;;;;;5028494;28;20391;-89
2022/10/31 15:42:20;;;;;;;24.23;21.73;;;;;;;;;;5039232;28;20878;-88
2022/10/31 15:44:50;;;;;;;23.27;21.08;;;;;;;;;;5050662;28;20420;-87
2022/10/31 15:47:17;;;;;;;21.60;19.67;;;;;;;;;;5032684;28;20470;-90
2022/10/31 15:49:56;;;;;;;21.48;19.48;;;;;;;;;;5030723;28;20870;-88
2022/10/31 15:52:44;;;;;;;21.90;19.73;;;;;;;;;;5041960;28;20830;-88
2022/10/31 15:55:16;;;;;;;23.17;20.87;;;;;;;;;;5037208;28;20472;-87
2022/10/31 15:57:43;;;;;;;23.30;21.08;;;;;;;;;;5031970;28;20405;-89
2022/10/31 16:00:28;;;;;;;24.27;21.67;;;;;;;;;;5050987;28;20447;-88
2022/10/31 16:03:12;;;;;;;24.40;21.90;;;;;;;;;;5040505;28;20810;-86
2022/10/31 16:05:51;;;;;;;24.67;22.10;;;;;;;;;;5042885;28;20379;-87
2022/10/31 16:08:24;;;;;;;26.97;24.17;;;;;;;;;;5051582;28;20413;-89
2022/10/31 16:10:50;;;;;;;25.73;23.23;;;;;;;;;;5054642;28;20382;-87
2022/10/31 16:13:22;;;;;;;24.08;21.67;;;;;;;;;;5053599;28;20369;-87
2022/10/31 16:15:49;;;;;;;29.37;26.27;;;;;;;;;;5039460;28;20467;-88
2022/10/31 16:18:15;;;;;;;34.70;31.13;;;;;;;;;;5051529;28;20374;-87
2022/10/31 16:20:49;;;;;;;23.85;21.55;;;;;;;;;;5054440;28;20877;-87
2022/10/31 16:23:16;;;;;;;22.02;19.90;;;;;;;;;;5054699;28;20416;-87
2022/10/31 16:25:42;;;;;;;38.40;34.40;;;;;;;;;;5054511;28;20382;-87
2022/10/31 16:28:17;;;;;;;25.20;22.50;;;;;;;;;;5054215;28;20479;-88
2022/10/31 16:30:51;;;;;;;22.88;20.58;;;;;;;;;;5053965;28;20754;-87
2022/10/31 16:33:22;;;;;;;20.90;18.85;;;;;;;;;;5046236;28;20387;-87
2022/10/31 16:35:49;;;;;;;20.02;18.13;;;;;;;;;;5034988;28;21454;-87
2022/10/31 16:38:16;;;;;;;24.27;21.70;;;;;;;;;;5032059;28;20967;-87
2022/10/31 16:40:42;;;;;;;28.17;25.23;;;;;;;;;;5033399;28;20387;-87
2022/10/31 16:43:15;;;;;;;31.95;28.70;;;;;;;;;;5047093;28;20392;-87
2022/10/31 16:45:48;;;;;;;20.40;18.50;;;;;;;;;;5053790;28;20383;-88
2022/10/31 16:48:16;;;;;;;27.65;24.85;;;;;;;;;;5038306;28;20422;-88
2022/10/31 16:50:43;;;;;;;23.70;21.45;;;;;;;;;;5033896;28;20915;-88
2022/10/31 16:53:09;;;;;;;36.20;32.30;;;;;;;;;;5034748;28;20386;-87
2022/10/31 16:55:41;;;;;;;28.07;23.53;;;;;;;;;;5047239;28;20390;-88
2022/10/31 16:58:10;;;;;;;59.67;49.25;;;;;;;;;;5037424;28;20390;-87
2022/10/31 17:00:37;;;;;;;52.35;44.13;;;;;;;;;;5036050;28;20399;-87
2022/10/31 17:03:04;;;;;;;29.03;25.90;;;;;;;;;;5038991;28;20379;-88
2022/10/31 17:05:31;;;;;;;37.47;33.47;;;;;;;;;;5031755;28;20386;-89
2022/10/31 17:07:57;;;;;;;18.50;16.92;;;;;;;;;;5042368;28;20759;-89
2022/10/31 17:10:24;;;;;;;18.35;16.75;;;;;;;;;;5031929;28;20375;-90
2022/10/31 17:12:50;;;;;;;17.27;15.88;;;;;;;;;;5051796;28;20377;-89
2022/10/31 17:15:26;;;;;;;17.63;16.33;;;;;;;;;;5043953;28;20465;-89
2022/10/31 17:17:56;;;;;;;17.10;15.13;;;;;;;;;;5050976;28;20373;-90
2022/10/31 17:20:22;;;;;;;14.48;13.57;;;;;;;;;;5053403;28;20746;-88
2022/10/31 17:22:48;;;;;;;14.57;13.47;;;;;;;;;;5052088;28;20376;-89
2022/10/31 17:25:15;;;;;;;14.20;13.20;;;;;;;;;;5048079;28;20375;-89
2022/10/31 17:27:41;;;;;;;22.92;15.88;;;;;;;;;;5049050;28;20409;-89
2022/10/31 17:30:08;;;;;;;14.88;13.90;;;;;;;;;;5052975;28;20896;-89
2022/10/31 17:32:34;;;;;;;14.15;13.23;;;;;;;;;;5042713;28;20888;-90
2022/10/31 17:35:00;;;;;;;14.93;13.90;;;;;;;;;;5048116;28;20385;-89
2022/10/31 17:37:26;;;;;;;19.77;17.70;;;;;;;;;;5043169;28;20385;-89
2022/10/31 17:39:52;;;;;;;17.92;16.63;;;;;;;;;;5048417;28;20393;-89
2022/10/31 17:42:18;;;;;;;19.23;17.58;;;;;;;;;;5037586;28;20413;-89
2022/10/31 17:44:44;;;;;;;17.77;16.40;;;;;;;;;;5051778;28;20413;-88
2022/10/31 17:47:10;;;;;;;18.92;17.13;;;;;;;;;;5033521;28;20462;-89
2022/10/31 17:49:36;;;;;;;16.52;15.23;;;;;;;;;;5045482;28;20412;-91
2022/10/31 17:52:02;;;;;;;17.60;16.08;;;;;;;;;;5035026;28;20480;-88
2022/10/31 17:54:28;;;;;;;17.17;15.60;;;;;;;;;;5052717;28;20384;-89
2022/10/31 17:56:54;;;;;;;18.38;16.73;;;;;;;;;;5046617;28;20987;-89
2022/10/31 17:59:20;;;;;;;19.27;17.52;;;;;;;;;;5051393;28;20404;-89
2022/10/31 18:01:46;;;;;;;21.67;19.60;;;;;;;;;;5046662;28;20470;-88
2022/10/31 18:04:12;;;;;;;24.10;21.30;;;;;;;;;;5049888;28;20859;-90
2022/10/31 18:06:38;;;;;;;23.35;20.98;;;;;;;;;;5043176;28;20916;-88
2022/10/31 18:09:04;;;;;;;22.17;20.08;;;;;;;;;;5032440;28;20490;-89
2022/10/31 18:11:31;;;;;;;23.60;21.20;;;;;;;;;;5033384;28;20431;-88
2022/10/31 18:13:57;;;;;;;24.33;20.13;;;;;;;;;;5033295;28;20390;-87
2022/10/31 18:16:23;;;;;;;19.63;17.90;;;;;;;;;;5032885;28;20386;-88
2022/10/31 18:18:53;;;;;;;19.15;17.40;;;;;;;;;;5032253;28;20462;-85
2022/10/31 18:21:23;;;;;;;21.40;19.35;;;;;;;;;;5028606;28;20483;-85
2022/10/31 18:23:53;;;;;;;19.02;17.40;;;;;;;;;;5025677;28;20375;-87
2022/10/31 18:26:19;;;;;;;19.10;17.43;;;;;;;;;;5022782;28;20768;-85
2022/10/31 18:28:45;;;;;;;18.27;16.77;;;;;;;;;;5026842;28;20477;-85
2022/10/31 18:31:11;;;;;;;20.70;18.75;;;;;;;;;;5027360;28;20399;-87
2022/10/31 18:33:37;;;;;;;24.83;22.33;;;;;;;;;;5015722;28;20389;-87
2022/10/31 18:36:04;;;;;;;41.65;30.38;;;;;;;;;;5028903;28;21143;-87
2022/10/31 18:38:30;;;;;;;22.88;20.58;;;;;;;;;;5037718;28;20782;-86
2022/10/31 18:40:56;;;;;;;51.92;26.48;;;;;;;;;;5033534;28;20781;-85
2022/10/31 18:43:22;;;;;;;25.95;23.25;;;;;;;;;;5030598;28;20434;-86
2022/10/31 18:45:48;;;;;;;26.13;23.27;;;;;;;;;;5025127;28;20399;-85
2022/10/31 18:48:16;;;;;;;27.77;23.95;;;;;;;;;;5017525;28;20425;-86
2022/10/31 18:50:42;;;;;;;24.92;22.35;;;;;;;;;;5048577;28;20381;-87
2022/10/31 18:53:11;;;;;;;31.73;23.73;;;;;;;;;;5050944;28;20370;-86
2022/10/31 18:55:40;;;;;;;28.25;25.13;;;;;;;;;;5050251;28;20498;-86
2022/10/31 18:58:06;;;;;;;35.25;29.10;;;;;;;;;;5030431;28;20449;-86
2022/10/31 19:00:32;;;;;;;54.17;32.28;;;;;;;;;;5021150;28;20446;-86
2022/10/31 19:02:58;;;;;;;35.80;28.67;;;;;;;;;;5021200;28;20390;-85
2022/10/31 19:05:24;;;;;;;39.45;28.05;;;;;;;;;;5024619;28;20885;-85
2022/10/31 19:07:50;;;;;;;37.40;27.30;;;;;;;;;;5032040;28;20443;-85
2022/10/31 19:10:16;;;;;;;32.00;24.40;;;;;;;;;;5016967;28;20433;-85
2022/10/31 19:12:42;;;;;;;30.38;24.13;;;;;;;;;;5021521;28;20948;-86
2022/10/31 19:15:08;;;;;;;24.50;21.27;;;;;;;;;;5017832;28;20432;-87
2022/10/31 19:17:34;;;;;;;24.77;20.98;;;;;;;;;;5021630;28;20438;-86
2022/10/31 19:20:00;;;;;;;26.55;21.45;;;;;;;;;;5012217;28;20459;-85
2022/10/31 19:22:27;;;;;;;24.35;19.75;;;;;;;;;;5014257;28;20389;-85
2022/10/31 19:24:53;;;;;;;23.13;18.83;;;;;;;;;;5030024;28;20445;-86
2022/10/31 19:27:19;;;;;;;21.25;18.42;;;;;;;;;;5026832;28;20434;-85
2022/10/31 19:29:45;;;;;;;20.90;17.88;;;;;;;;;;4962840;28;1758126;-85
2022/10/31 19:32:11;;;;;;;22.85;20.20;;;;;;;;;;5022349;28;20904;-85
2022/10/31 19:34:37;;;;;;;21.80;19.50;;;;;;;;;;5037720;28;20411;-85
2022/10/31 19:37:03;;;;;;;22.67;18.93;;;;;;;;;;5020342;28;20751;-85
2022/10/31 19:39:29;;;;;;;22.85;20.50;;;;;;;;;;5030029;28;20430;-84
2022/10/31 19:41:55;;;;;;;26.85;20.92;;;;;;;;;;5023637;28;20388;-85
2022/10/31 19:44:21;;;;;;;29.73;21.20;;;;;;;;;;5027524;28;20543;-85
2022/10/31 19:46:47;;;;;;;44.80;26.85;;;;;;;;;;5036674;28;20405;-85